sensor_id;sensor_type;location;lat;lon;timestamp;temperature;humidity
62589;DHT22;58504;48.770;9.148;2022-11-22T00:00:54;20.70;59.00
62589;DHT22;58504;48.770;9.148;2022-11-22T00:03:21;20.60;59.00
62589;DHT22;58504;48.770;9.148;2022-11-22T00:05:49;20.60;59.10
62589;DHT22;58504;48.770;9.148;2022-11-22T00:08:16;20.60;59.10
62589;DHT22;58504;48.770;9.148;2022-11-22T00:10:42;20.60;59.20
62589;DHT22;58504;48.770;9.148;2022-11-22T00:13:09;20.60;59.20
62589;DHT22;58504;48.770;9.148;2022-11-22T00:15:36;20.50;59.20
62589;DHT22;58504;48.770;9.148;2022-11-22T00:18:03;20.60;59.30
62589;DHT22;58504;48.770;9.148;2022-11-22T00:20:30;20.50;59.30
62589;DHT22;58504;48.770;9.148;2022-11-22T00:22:58;20.50;59.40
62589;DHT22;58504;48.770;9.148;2022-11-22T00:25:25;20.50;59.40
62589;DHT22;58504;48.770;9.148;2022-11-22T00:27:52;20.50;59.40
62589;DHT22;58504;48.770;9.148;2022-11-22T00:30:19;20.40;59.40
62589;DHT22;58504;48.770;9.148;2022-11-22T00:32:46;20.40;59.40
62589;DHT22;58504;48.770;9.148;2022-11-22T00:35:13;20.40;59.50
62589;DHT22;58504;48.770;9.148;2022-11-22T00:37:40;20.40;59.50
62589;DHT22;58504;48.770;9.148;2022-11-22T00:40:09;20.40;59.50
62589;DHT22;58504;48.770;9.148;2022-11-22T00:42:36;20.40;59.60
62589;DHT22;58504;48.770;9.148;2022-11-22T00:45:03;20.30;59.50
62589;DHT22;58504;48.770;9.148;2022-11-22T00:47:30;20.30;59.60
62589;DHT22;58504;48.770;9.148;2022-11-22T00:49:57;20.30;59.60
62589;DHT22;58504;48.770;9.148;2022-11-22T00:52:23;20.30;59.60
62589;DHT22;58504;48.770;9.148;2022-11-22T00:54:50;20.30;59.60
62589;DHT22;58504;48.770;9.148;2022-11-22T00:57:18;20.30;59.70
62589;DHT22;58504;48.770;9.148;2022-11-22T00:59:45;20.30;59.70
62589;DHT22;58504;48.770;9.148;2022-11-22T01:02:12;20.30;59.80
62589;DHT22;58504;48.770;9.148;2022-11-22T01:04:38;20.30;59.80
62589;DHT22;58504;48.770;9.148;2022-11-22T01:07:05;20.20;59.70
62589;DHT22;58504;48.770;9.148;2022-11-22T01:09:32;20.20;59.70
62589;DHT22;58504;48.770;9.148;2022-11-22T01:11:58;20.20;59.70
62589;DHT22;58504;48.770;9.148;2022-11-22T01:14:27;20.20;59.80
62589;DHT22;58504;48.770;9.148;2022-11-22T01:16:53;20.20;59.80
62589;DHT22;58504;48.770;9.148;2022-11-22T01:19:20;20.20;59.80
62589;DHT22;58504;48.770;9.148;2022-11-22T01:21:47;20.20;59.80
62589;DHT22;58504;48.770;9.148;2022-11-22T01:24:14;20.20;59.90
62589;DHT22;58504;48.770;9.148;2022-11-22T01:26:40;20.10;59.80
62589;DHT22;58504;48.770;9.148;2022-11-22T01:29:07;20.10;59.80
62589;DHT22;58504;48.770;9.148;2022-11-22T01:31:35;20.10;59.80
62589;DHT22;58504;48.770;9.148;2022-11-22T01:34:04;20.10;59.90
62589;DHT22;58504;48.770;9.148;2022-11-22T01:36:31;20.10;59.90
62589;DHT22;58504;48.770;9.148;2022-11-22T01:38:57;20.10;59.90
62589;DHT22;58504;48.770;9.148;2022-11-22T01:41:24;20.10;60.00
62589;DHT22;58504;48.770;9.148;2022-11-22T01:43:51;20.00;59.90
62589;DHT22;58504;48.770;9.148;2022-11-22T01:46:26;20.00;59.90
62589;DHT22;58504;48.770;9.148;2022-11-22T01:49:00;20.00;59.90
62589;DHT22;58504;48.770;9.148;2022-11-22T01:51:32;20.00;59.90
62589;DHT22;58504;48.770;9.148;2022-11-22T01:54:04;20.00;59.90
62589;DHT22;58504;48.770;9.148;2022-11-22T01:56:33;20.00;59.90
62589;DHT22;58504;48.770;9.148;2022-11-22T01:59:06;20.00;60.00
62589;DHT22;58504;48.770;9.148;2022-11-22T02:01:34;19.90;60.00
62589;DHT22;58504;48.770;9.148;2022-11-22T02:04:04;19.90;60.00
62589;DHT22;58504;48.770;9.148;2022-11-22T02:06:37;19.90;60.00
62589;DHT22;58504;48.770;9.148;2022-11-22T02:09:09;19.90;60.00
62589;DHT22;58504;48.770;9.148;2022-11-22T02:11:39;19.90;60.00
62589;DHT22;58504;48.770;9.148;2022-11-22T02:14:07;19.90;60.00
62589;DHT22;58504;48.770;9.148;2022-11-22T02:16:35;19.90;60.00
62589;DHT22;58504;48.770;9.148;2022-11-22T02:19:04;19.90;60.10
62589;DHT22;58504;48.770;9.148;2022-11-22T02:21:35;19.90;60.10
62589;DHT22;58504;48.770;9.148;2022-11-22T02:24:07;19.90;60.20
62589;DHT22;58504;48.770;9.148;2022-11-22T02:26:36;19.90;60.20
62589;DHT22;58504;48.770;9.148;2022-11-22T02:29:05;19.90;60.30
62589;DHT22;58504;48.770;9.148;2022-11-22T02:31:39;19.80;60.20
62589;DHT22;58504;48.770;9.148;2022-11-22T02:34:07;19.80;60.20
62589;DHT22;58504;48.770;9.148;2022-11-22T02:36:37;19.80;60.20
62589;DHT22;58504;48.770;9.148;2022-11-22T02:39:06;19.80;60.30
62589;DHT22;58504;48.770;9.148;2022-11-22T02:41:36;19.80;60.20
62589;DHT22;58504;48.770;9.148;2022-11-22T02:44:03;19.80;60.30
62589;DHT22;58504;48.770;9.148;2022-11-22T02:46:32;19.80;60.30
62589;DHT22;58504;48.770;9.148;2022-11-22T02:48:58;19.80;60.30
62589;DHT22;58504;48.770;9.148;2022-11-22T02:51:25;19.80;60.30
62589;DHT22;58504;48.770;9.148;2022-11-22T02:53:52;19.80;60.40
62589;DHT22;58504;48.770;9.148;2022-11-22T02:56:21;19.80;60.40
62589;DHT22;58504;48.770;9.148;2022-11-22T02:58:49;19.80;60.40
62589;DHT22;58504;48.770;9.148;2022-11-22T03:01:16;19.80;60.40
62589;DHT22;58504;48.770;9.148;2022-11-22T03:03:42;19.80;60.40
62589;DHT22;58504;48.770;9.148;2022-11-22T03:06:09;19.70;60.40
62589;DHT22;58504;48.770;9.148;2022-11-22T03:08:36;19.70;60.40
62589;DHT22;58504;48.770;9.148;2022-11-22T03:11:02;19.70;60.40
62589;DHT22;58504;48.770;9.148;2022-11-22T03:13:29;19.70;60.50
62589;DHT22;58504;48.770;9.148;2022-11-22T03:15:57;19.70;60.50
62589;DHT22;58504;48.770;9.148;2022-11-22T03:18:24;19.70;60.50
62589;DHT22;58504;48.770;9.148;2022-11-22T03:20:51;19.70;60.50
62589;DHT22;58504;48.770;9.148;2022-11-22T03:23:18;19.70;60.60
62589;DHT22;58504;48.770;9.148;2022-11-22T03:25:44;19.70;60.60
62589;DHT22;58504;48.770;9.148;2022-11-22T03:28:11;19.70;60.60
62589;DHT22;58504;48.770;9.148;2022-11-22T03:30:39;19.70;60.60
62589;DHT22;58504;48.770;9.148;2022-11-22T03:33:08;19.70;60.60
62589;DHT22;58504;48.770;9.148;2022-11-22T03:35:35;19.60;60.50
62589;DHT22;58504;48.770;9.148;2022-11-22T03:38:02;19.60;60.60
62589;DHT22;58504;48.770;9.148;2022-11-22T03:40:28;19.60;60.60
62589;DHT22;58504;48.770;9.148;2022-11-22T03:42:58;19.60;60.60
62589;DHT22;58504;48.770;9.148;2022-11-22T03:45:25;19.60;60.60
62589;DHT22;58504;48.770;9.148;2022-11-22T03:47:52;19.60;60.60
62589;DHT22;58504;48.770;9.148;2022-11-22T03:50:20;19.60;60.60
62589;DHT22;58504;48.770;9.148;2022-11-22T03:52:47;19.60;60.70
62589;DHT22;58504;48.770;9.148;2022-11-22T03:55:14;19.60;60.60
62589;DHT22;58504;48.770;9.148;2022-11-22T03:57:41;19.60;60.70
62589;DHT22;58504;48.770;9.148;2022-11-22T04:00:09;19.60;60.70
62589;DHT22;58504;48.770;9.148;2022-11-22T04:02:37;19.50;60.60
62589;DHT22;58504;48.770;9.148;2022-11-22T04:05:04;19.50;60.60
62589;DHT22;58504;48.770;9.148;2022-11-22T04:07:32;19.50;60.70
62589;DHT22;58504;48.770;9.148;2022-11-22T04:09:59;19.50;60.70
62589;DHT22;58504;48.770;9.148;2022-11-22T04:12:27;19.50;60.70
62589;DHT22;58504;48.770;9.148;2022-11-22T04:14:54;19.50;60.70
62589;DHT22;58504;48.770;9.148;2022-11-22T04:17:31;19.50;60.70
62589;DHT22;58504;48.770;9.148;2022-11-22T04:20:12;19.50;60.80
62589;DHT22;58504;48.770;9.148;2022-11-22T04:22:59;19.50;60.70
62589;DHT22;58504;48.770;9.148;2022-11-22T04:25:28;19.50;60.80
62589;DHT22;58504;48.770;9.148;2022-11-22T04:27:54;19.50;60.80
62589;DHT22;58504;48.770;9.148;2022-11-22T04:30:22;19.50;60.80
62589;DHT22;58504;48.770;9.148;2022-11-22T04:33:11;19.50;60.70
62589;DHT22;58504;48.770;9.148;2022-11-22T04:35:38;19.70;60.50
62589;DHT22;58504;48.770;9.148;2022-11-22T04:38:06;19.90;60.00
62589;DHT22;58504;48.770;9.148;2022-11-22T04:40:33;20.20;59.50
62589;DHT22;58504;48.770;9.148;2022-11-22T04:43:00;20.40;59.00
62589;DHT22;58504;48.770;9.148;2022-11-22T04:45:45;20.50;58.60
62589;DHT22;58504;48.770;9.148;2022-11-22T04:48:12;20.70;58.40
62589;DHT22;58504;48.770;9.148;2022-11-22T04:50:40;20.80;58.10
62589;DHT22;58504;48.770;9.148;2022-11-22T04:53:27;20.90;57.90
62589;DHT22;58504;48.770;9.148;2022-11-22T04:55:54;21.00;57.80
62589;DHT22;58504;48.770;9.148;2022-11-22T04:58:21;21.00;57.50
62589;DHT22;58504;48.770;9.148;2022-11-22T05:00:48;21.10;57.40
62589;DHT22;58504;48.770;9.148;2022-11-22T05:03:16;21.20;57.30
62589;DHT22;58504;48.770;9.148;2022-11-22T05:05:43;21.20;57.20
62589;DHT22;58504;48.770;9.148;2022-11-22T05:08:11;21.30;57.10
62589;DHT22;58504;48.770;9.148;2022-11-22T05:10:39;21.30;57.00
62589;DHT22;58504;48.770;9.148;2022-11-22T05:13:27;21.40;56.90
62589;DHT22;58504;48.770;9.148;2022-11-22T05:15:54;21.40;56.80
62589;DHT22;58504;48.770;9.148;2022-11-22T05:18:22;21.50;56.70
62589;DHT22;58504;48.770;9.148;2022-11-22T05:20:49;21.50;56.60
62589;DHT22;58504;48.770;9.148;2022-11-22T05:23:17;21.50;56.60
62589;DHT22;58504;48.770;9.148;2022-11-22T05:26:09;21.60;56.70
62589;DHT22;58504;48.770;9.148;2022-11-22T05:28:37;21.70;56.70
62589;DHT22;58504;48.770;9.148;2022-11-22T05:31:08;21.70;56.60
62589;DHT22;58504;48.770;9.148;2022-11-22T05:33:36;21.70;56.50
62589;DHT22;58504;48.770;9.148;2022-11-22T05:36:03;21.80;56.50
62589;DHT22;58504;48.770;9.148;2022-11-22T05:38:30;21.80;56.40
62589;DHT22;58504;48.770;9.148;2022-11-22T05:40:57;21.80;56.10
62589;DHT22;58504;48.770;9.148;2022-11-22T05:43:26;21.80;56.00
62589;DHT22;58504;48.770;9.148;2022-11-22T05:45:53;21.90;55.90
62589;DHT22;58504;48.770;9.148;2022-11-22T05:48:20;21.90;55.90
62589;DHT22;58504;48.770;9.148;2022-11-22T05:50:46;21.90;55.80
62589;DHT22;58504;48.770;9.148;2022-11-22T05:53:13;21.90;55.80
62589;DHT22;58504;48.770;9.148;2022-11-22T05:55:40;21.90;55.80
62589;DHT22;58504;48.770;9.148;2022-11-22T05:58:07;21.90;55.70
62589;DHT22;58504;48.770;9.148;2022-11-22T06:00:35;22.00;55.80
62589;DHT22;58504;48.770;9.148;2022-11-22T06:03:02;22.00;55.70
62589;DHT22;58504;48.770;9.148;2022-11-22T06:05:29;22.00;55.70
62589;DHT22;58504;48.770;9.148;2022-11-22T06:07:57;22.00;55.60
62589;DHT22;58504;48.770;9.148;2022-11-22T06:10:24;22.00;55.60
62589;DHT22;58504;48.770;9.148;2022-11-22T06:12:51;22.00;55.60
62589;DHT22;58504;48.770;9.148;2022-11-22T06:15:18;22.10;55.60
62589;DHT22;58504;48.770;9.148;2022-11-22T06:17:47;22.10;55.60
62589;DHT22;58504;48.770;9.148;2022-11-22T06:20:14;22.10;55.60
62589;DHT22;58504;48.770;9.148;2022-11-22T06:22:41;22.10;55.60
62589;DHT22;58504;48.770;9.148;2022-11-22T06:25:09;22.20;55.60
62589;DHT22;58504;48.770;9.148;2022-11-22T06:27:35;22.10;55.40
62589;DHT22;58504;48.770;9.148;2022-11-22T06:30:03;22.20;55.40
62589;DHT22;58504;48.770;9.148;2022-11-22T06:32:31;22.20;55.40
62589;DHT22;58504;48.770;9.148;2022-11-22T06:35:00;22.20;55.40
62589;DHT22;58504;48.770;9.148;2022-11-22T06:37:28;22.20;55.30
62589;DHT22;58504;48.770;9.148;2022-11-22T06:39:54;22.20;55.20
62589;DHT22;58504;48.770;9.148;2022-11-22T06:42:21;22.20;55.10
62589;DHT22;58504;48.770;9.148;2022-11-22T06:44:48;22.30;55.10
62589;DHT22;58504;48.770;9.148;2022-11-22T06:47:15;22.30;55.00
62589;DHT22;58504;48.770;9.148;2022-11-22T06:49:42;22.30;55.00
62589;DHT22;58504;48.770;9.148;2022-11-22T06:52:10;22.30;55.00
62589;DHT22;58504;48.770;9.148;2022-11-22T06:54:37;22.30;54.90
62589;DHT22;58504;48.770;9.148;2022-11-22T06:57:04;22.30;54.90
62589;DHT22;58504;48.770;9.148;2022-11-22T06:59:31;22.30;54.90
62589;DHT22;58504;48.770;9.148;2022-11-22T07:01:57;22.40;55.10
62589;DHT22;58504;48.770;9.148;2022-11-22T07:04:24;22.40;55.10
62589;DHT22;58504;48.770;9.148;2022-11-22T07:06:51;22.40;55.10
62589;DHT22;58504;48.770;9.148;2022-11-22T07:09:19;22.40;54.90
62589;DHT22;58504;48.770;9.148;2022-11-22T07:11:46;22.50;55.00
62589;DHT22;58504;48.770;9.148;2022-11-22T07:14:12;22.50;55.00
62589;DHT22;58504;48.770;9.148;2022-11-22T07:16:39;22.50;54.90
62589;DHT22;58504;48.770;9.148;2022-11-22T07:19:06;22.50;54.90
62589;DHT22;58504;48.770;9.148;2022-11-22T07:21:34;22.60;54.80
62589;DHT22;58504;48.770;9.148;2022-11-22T07:24:03;22.50;54.80
62589;DHT22;58504;48.770;9.148;2022-11-22T07:26:32;22.60;54.70
62589;DHT22;58504;48.770;9.148;2022-11-22T07:28:59;22.60;54.70
62589;DHT22;58504;48.770;9.148;2022-11-22T07:31:26;22.60;54.70
62589;DHT22;58504;48.770;9.148;2022-11-22T07:33:54;22.50;54.70
62589;DHT22;58504;48.770;9.148;2022-11-22T07:36:21;22.50;54.80
62589;DHT22;58504;48.770;9.148;2022-11-22T07:38:49;22.50;54.90
62589;DHT22;58504;48.770;9.148;2022-11-22T07:41:17;22.50;54.80
62589;DHT22;58504;48.770;9.148;2022-11-22T07:43:47;22.60;54.80
62589;DHT22;58504;48.770;9.148;2022-11-22T07:46:22;22.60;54.80
62589;DHT22;58504;48.770;9.148;2022-11-22T07:48:49;22.60;54.60
62589;DHT22;58504;48.770;9.148;2022-11-22T07:51:16;22.60;54.60
62589;DHT22;58504;48.770;9.148;2022-11-22T07:53:43;22.60;54.50
62589;DHT22;58504;48.770;9.148;2022-11-22T07:56:11;22.70;54.50
62589;DHT22;58504;48.770;9.148;2022-11-22T07:58:38;22.70;54.40
62589;DHT22;58504;48.770;9.148;2022-11-22T08:01:08;22.70;54.30
62589;DHT22;58504;48.770;9.148;2022-11-22T08:03:35;22.80;54.50
62589;DHT22;58504;48.770;9.148;2022-11-22T08:06:03;22.80;54.50
62589;DHT22;58504;48.770;9.148;2022-11-22T08:08:30;22.80;54.40
62589;DHT22;58504;48.770;9.148;2022-11-22T08:10:57;22.80;54.40
62589;DHT22;58504;48.770;9.148;2022-11-22T08:13:24;22.80;54.30
62589;DHT22;58504;48.770;9.148;2022-11-22T08:15:51;22.80;54.30
62589;DHT22;58504;48.770;9.148;2022-11-22T08:18:20;22.90;54.40
62589;DHT22;58504;48.770;9.148;2022-11-22T08:20:46;22.80;54.20
62589;DHT22;58504;48.770;9.148;2022-11-22T08:23:13;22.90;54.20
62589;DHT22;58504;48.770;9.148;2022-11-22T08:25:40;22.90;54.10
62589;DHT22;58504;48.770;9.148;2022-11-22T08:28:07;22.90;54.10
62589;DHT22;58504;48.770;9.148;2022-11-22T08:30:33;22.90;54.20
62589;DHT22;58504;48.770;9.148;2022-11-22T08:33:00;22.90;54.10
62589;DHT22;58504;48.770;9.148;2022-11-22T08:35:28;22.90;54.10
62589;DHT22;58504;48.770;9.148;2022-11-22T08:37:55;22.90;54.00
62589;DHT22;58504;48.770;9.148;2022-11-22T08:40:22;23.00;54.10
62589;DHT22;58504;48.770;9.148;2022-11-22T08:42:49;23.00;54.00
62589;DHT22;58504;48.770;9.148;2022-11-22T08:45:18;23.00;54.00
62589;DHT22;58504;48.770;9.148;2022-11-22T08:47:45;23.00;53.90
62589;DHT22;58504;48.770;9.148;2022-11-22T08:50:13;23.10;54.00
62589;DHT22;58504;48.770;9.148;2022-11-22T08:52:41;23.10;53.90
62589;DHT22;58504;48.770;9.148;2022-11-22T08:55:08;23.10;53.90
62589;DHT22;58504;48.770;9.148;2022-11-22T08:57:35;23.10;53.80
62589;DHT22;58504;48.770;9.148;2022-11-22T09:00:03;23.10;53.80
62589;DHT22;58504;48.770;9.148;2022-11-22T09:02:30;23.10;53.70
62589;DHT22;58504;48.770;9.148;2022-11-22T09:04:57;23.20;53.70
62589;DHT22;58504;48.770;9.148;2022-11-22T09:07:24;23.20;53.70
62589;DHT22;58504;48.770;9.148;2022-11-22T09:09:52;23.20;53.70
62589;DHT22;58504;48.770;9.148;2022-11-22T09:12:19;23.20;53.70
62589;DHT22;58504;48.770;9.148;2022-11-22T09:14:46;23.30;53.70
62589;DHT22;58504;48.770;9.148;2022-11-22T09:17:12;23.30;53.70
62589;DHT22;58504;48.770;9.148;2022-11-22T09:19:39;23.30;53.60
62589;DHT22;58504;48.770;9.148;2022-11-22T09:22:06;23.30;53.60
62589;DHT22;58504;48.770;9.148;2022-11-22T09:24:33;23.30;53.50
62589;DHT22;58504;48.770;9.148;2022-11-22T09:27:01;23.30;53.50
62589;DHT22;58504;48.770;9.148;2022-11-22T09:29:27;23.30;53.40
62589;DHT22;58504;48.770;9.148;2022-11-22T09:31:54;23.30;53.40
62589;DHT22;58504;48.770;9.148;2022-11-22T09:34:21;23.40;53.50
62589;DHT22;58504;48.770;9.148;2022-11-22T09:36:48;23.40;53.50
62589;DHT22;58504;48.770;9.148;2022-11-22T09:39:15;23.40;53.40
62589;DHT22;58504;48.770;9.148;2022-11-22T09:42:05;23.40;53.40
62589;DHT22;58504;48.770;9.148;2022-11-22T09:44:43;23.40;53.30
62589;DHT22;58504;48.770;9.148;2022-11-22T09:47:22;23.40;53.40
62589;DHT22;58504;48.770;9.148;2022-11-22T09:49:57;23.40;53.30
62589;DHT22;58504;48.770;9.148;2022-11-22T09:52:32;23.40;53.30
62589;DHT22;58504;48.770;9.148;2022-11-22T09:55:03;23.40;53.20
62589;DHT22;58504;48.770;9.148;2022-11-22T09:57:38;23.40;53.20
62589;DHT22;58504;48.770;9.148;2022-11-22T10:00:10;23.40;53.20
62589;DHT22;58504;48.770;9.148;2022-11-22T10:02:49;23.40;53.80
62589;DHT22;58504;48.770;9.148;2022-11-22T10:05:23;23.40;53.20
62589;DHT22;58504;48.770;9.148;2022-11-22T10:07:53;23.40;53.20
62589;DHT22;58504;48.770;9.148;2022-11-22T10:10:25;23.40;53.10
62589;DHT22;58504;48.770;9.148;2022-11-22T10:12:58;23.40;53.10
62589;DHT22;58504;48.770;9.148;2022-11-22T10:15:30;23.40;53.10
62589;DHT22;58504;48.770;9.148;2022-11-22T10:18:00;23.50;53.20
62589;DHT22;58504;48.770;9.148;2022-11-22T10:20:31;23.50;53.20
62589;DHT22;58504;48.770;9.148;2022-11-22T10:22:58;23.50;53.20
62589;DHT22;58504;48.770;9.148;2022-11-22T10:25:34;23.50;53.20
62589;DHT22;58504;48.770;9.148;2022-11-22T10:28:11;23.50;53.10
62589;DHT22;58504;48.770;9.148;2022-11-22T10:30:45;23.40;53.10
62589;DHT22;58504;48.770;9.148;2022-11-22T10:33:17;23.50;53.10
62589;DHT22;58504;48.770;9.148;2022-11-22T10:36:05;23.50;53.10
62589;DHT22;58504;48.770;9.148;2022-11-22T10:41:40;23.50;53.10
62589;DHT22;58504;48.770;9.148;2022-11-22T10:44:19;23.50;53.10
62589;DHT22;58504;48.770;9.148;2022-11-22T10:46:54;23.50;53.10
62589;DHT22;58504;48.770;9.148;2022-11-22T10:49:38;23.60;53.20
62589;DHT22;58504;48.770;9.148;2022-11-22T10:52:14;23.60;53.10
62589;DHT22;58504;48.770;9.148;2022-11-22T10:54:49;23.60;53.10
62589;DHT22;58504;48.770;9.148;2022-11-22T10:57:28;23.60;53.10
62589;DHT22;58504;48.770;9.148;2022-11-22T11:00:16;23.50;53.00
62589;DHT22;58504;48.770;9.148;2022-11-22T11:03:03;23.60;53.00
62589;DHT22;58504;48.770;9.148;2022-11-22T11:05:34;23.60;53.00
62589;DHT22;58504;48.770;9.148;2022-11-22T11:08:04;23.60;53.00
62589;DHT22;58504;48.770;9.148;2022-11-22T11:10:35;23.60;53.00
62589;DHT22;58504;48.770;9.148;2022-11-22T11:13:05;23.60;52.90
62589;DHT22;58504;48.770;9.148;2022-11-22T11:15:37;23.60;52.90
62589;DHT22;58504;48.770;9.148;2022-11-22T11:18:11;23.60;52.90
62589;DHT22;58504;48.770;9.148;2022-11-22T11:20:41;23.60;52.90
62589;DHT22;58504;48.770;9.148;2022-11-22T11:23:09;23.60;52.80
62589;DHT22;58504;48.770;9.148;2022-11-22T11:25:37;23.70;52.80
62589;DHT22;58504;48.770;9.148;2022-11-22T11:28:07;23.70;52.80
62589;DHT22;58504;48.770;9.148;2022-11-22T11:30:44;23.70;52.80
62589;DHT22;58504;48.770;9.148;2022-11-22T11:33:22;23.70;52.70
62589;DHT22;58504;48.770;9.148;2022-11-22T11:35:51;23.70;52.70
62589;DHT22;58504;48.770;9.148;2022-11-22T11:38:31;23.70;52.70
62589;DHT22;58504;48.770;9.148;2022-11-22T11:41:15;23.70;52.60
62589;DHT22;58504;48.770;9.148;2022-11-22T11:43:43;23.70;52.60
62589;DHT22;58504;48.770;9.148;2022-11-22T11:46:16;23.70;52.60
62589;DHT22;58504;48.770;9.148;2022-11-22T11:48:44;23.70;52.60
62589;DHT22;58504;48.770;9.148;2022-11-22T11:51:15;23.70;52.50
62589;DHT22;58504;48.770;9.148;2022-11-22T11:53:50;23.80;53.20
62589;DHT22;58504;48.770;9.148;2022-11-22T11:59:13;23.80;52.60
62589;DHT22;58504;48.770;9.148;2022-11-22T12:01:48;23.80;52.50
62589;DHT22;58504;48.770;9.148;2022-11-22T12:04:20;23.80;52.50
62589;DHT22;58504;48.770;9.148;2022-11-22T12:06:54;23.80;52.50
62589;DHT22;58504;48.770;9.148;2022-11-22T12:09:33;23.80;52.40
62589;DHT22;58504;48.770;9.148;2022-11-22T12:12:06;23.80;52.40
62589;DHT22;58504;48.770;9.148;2022-11-22T12:14:34;23.80;52.30
62589;DHT22;58504;48.770;9.148;2022-11-22T12:17:09;23.80;52.40
62589;DHT22;58504;48.770;9.148;2022-11-22T12:19:47;23.80;52.30
62589;DHT22;58504;48.770;9.148;2022-11-22T12:22:18;23.80;52.30
62589;DHT22;58504;48.770;9.148;2022-11-22T12:24:51;23.80;52.30
62589;DHT22;58504;48.770;9.148;2022-11-22T12:27:19;23.90;52.30
62589;DHT22;58504;48.770;9.148;2022-11-22T12:29:46;23.90;52.30
62589;DHT22;58504;48.770;9.148;2022-11-22T12:32:18;23.90;52.30
62589;DHT22;58504;48.770;9.148;2022-11-22T12:34:52;23.90;52.30
62589;DHT22;58504;48.770;9.148;2022-11-22T12:37:24;23.90;52.30
62589;DHT22;58504;48.770;9.148;2022-11-22T12:39:57;23.90;52.20
62589;DHT22;58504;48.770;9.148;2022-11-22T12:42:30;23.90;52.30
62589;DHT22;58504;48.770;9.148;2022-11-22T12:45:02;23.90;52.30
62589;DHT22;58504;48.770;9.148;2022-11-22T12:47:36;23.90;52.20
62589;DHT22;58504;48.770;9.148;2022-11-22T12:50:08;23.90;52.20
62589;DHT22;58504;48.770;9.148;2022-11-22T12:52:42;23.90;52.20
62589;DHT22;58504;48.770;9.148;2022-11-22T12:55:15;23.90;52.20
62589;DHT22;58504;48.770;9.148;2022-11-22T12:57:46;24.00;52.30
62589;DHT22;58504;48.770;9.148;2022-11-22T13:00:17;23.90;52.20
62589;DHT22;58504;48.770;9.148;2022-11-22T13:02:56;23.90;52.10
62589;DHT22;58504;48.770;9.148;2022-11-22T13:05:26;24.00;52.20
62589;DHT22;58504;48.770;9.148;2022-11-22T13:07:59;23.90;52.10
62589;DHT22;58504;48.770;9.148;2022-11-22T13:10:33;23.90;52.10
62589;DHT22;58504;48.770;9.148;2022-11-22T13:13:02;24.00;52.20
62589;DHT22;58504;48.770;9.148;2022-11-22T13:15:32;23.90;52.10
62589;DHT22;58504;48.770;9.148;2022-11-22T13:18:07;23.90;52.10
62589;DHT22;58504;48.770;9.148;2022-11-22T13:20:37;24.00;52.20
62589;DHT22;58504;48.770;9.148;2022-11-22T13:23:16;23.90;52.20
62589;DHT22;58504;48.770;9.148;2022-11-22T13:25:56;23.90;52.10
62589;DHT22;58504;48.770;9.148;2022-11-22T13:28:27;23.90;52.10
62589;DHT22;58504;48.770;9.148;2022-11-22T13:31:15;24.00;52.20
62589;DHT22;58504;48.770;9.148;2022-11-22T13:33:52;23.90;52.20
62589;DHT22;58504;48.770;9.148;2022-11-22T13:39:11;23.90;52.10
62589;DHT22;58504;48.770;9.148;2022-11-22T13:41:43;23.90;52.20
62589;DHT22;58504;48.770;9.148;2022-11-22T13:44:26;23.90;52.20
62589;DHT22;58504;48.770;9.148;2022-11-22T13:46:55;23.90;52.10
62589;DHT22;58504;48.770;9.148;2022-11-22T13:49:35;23.90;52.10
62589;DHT22;58504;48.770;9.148;2022-11-22T13:52:03;23.90;52.10
62589;DHT22;58504;48.770;9.148;2022-11-22T13:54:56;24.00;52.30
62589;DHT22;58504;48.770;9.148;2022-11-22T13:57:24;23.90;52.10
62589;DHT22;58504;48.770;9.148;2022-11-22T14:03:34;23.90;52.20
62589;DHT22;58504;48.770;9.148;2022-11-22T14:06:22;23.90;52.20
62589;DHT22;58504;48.770;9.148;2022-11-22T14:09:15;23.90;52.10
62589;DHT22;58504;48.770;9.148;2022-11-22T14:14:49;23.90;52.20
62589;DHT22;58504;48.770;9.148;2022-11-22T14:17:24;23.90;52.20
62589;DHT22;58504;48.770;9.148;2022-11-22T14:20:00;23.90;52.10
62589;DHT22;58504;48.770;9.148;2022-11-22T14:22:44;23.90;52.20
62589;DHT22;58504;48.770;9.148;2022-11-22T14:25:28;23.90;52.20
62589;DHT22;58504;48.770;9.148;2022-11-22T14:28:08;23.90;52.30
62589;DHT22;58504;48.770;9.148;2022-11-22T14:30:38;23.90;52.30
62589;DHT22;58504;48.770;9.148;2022-11-22T14:33:14;23.80;52.10
62589;DHT22;58504;48.770;9.148;2022-11-22T14:36:14;23.80;52.10
62589;DHT22;58504;48.770;9.148;2022-11-22T14:38:43;23.90;52.20
62589;DHT22;58504;48.770;9.148;2022-11-22T14:41:39;23.90;52.30
62589;DHT22;58504;48.770;9.148;2022-11-22T14:44:09;23.90;52.30
62589;DHT22;58504;48.770;9.148;2022-11-22T14:46:40;23.80;52.30
62589;DHT22;58504;48.770;9.148;2022-11-22T14:49:13;23.80;52.30
62589;DHT22;58504;48.770;9.148;2022-11-22T14:51:41;23.80;52.30
62589;DHT22;58504;48.770;9.148;2022-11-22T14:54:18;23.80;52.30
62589;DHT22;58504;48.770;9.148;2022-11-22T14:56:47;23.80;52.40
62589;DHT22;58504;48.770;9.148;2022-11-22T14:59:35;23.80;52.40
62589;DHT22;58504;48.770;9.148;2022-11-22T15:02:24;23.80;52.40
62589;DHT22;58504;48.770;9.148;2022-11-22T15:05:00;23.80;52.40
62589;DHT22;58504;48.770;9.148;2022-11-22T15:07:54;23.80;52.40
62589;DHT22;58504;48.770;9.148;2022-11-22T15:13:44;23.80;52.40
62589;DHT22;58504;48.770;9.148;2022-11-22T15:16:16;23.80;52.40
62589;DHT22;58504;48.770;9.148;2022-11-22T15:18:47;23.80;52.40
62589;DHT22;58504;48.770;9.148;2022-11-22T15:21:24;23.80;52.50
62589;DHT22;58504;48.770;9.148;2022-11-22T15:23:52;23.80;52.40
62589;DHT22;58504;48.770;9.148;2022-11-22T15:26:22;23.80;52.50
62589;DHT22;58504;48.770;9.148;2022-11-22T15:28:50;23.80;52.50
62589;DHT22;58504;48.770;9.148;2022-11-22T15:31:20;23.80;52.50
62589;DHT22;58504;48.770;9.148;2022-11-22T15:33:49;23.80;52.50
62589;DHT22;58504;48.770;9.148;2022-11-22T15:36:30;23.80;52.40
62589;DHT22;58504;48.770;9.148;2022-11-22T15:38:58;23.80;52.50
62589;DHT22;58504;48.770;9.148;2022-11-22T15:41:28;23.80;52.40
62589;DHT22;58504;48.770;9.148;2022-11-22T15:43:57;23.80;52.50
62589;DHT22;58504;48.770;9.148;2022-11-22T15:46:25;23.80;52.50
62589;DHT22;58504;48.770;9.148;2022-11-22T15:48:53;23.80;52.50
62589;DHT22;58504;48.770;9.148;2022-11-22T15:51:25;23.80;52.50
62589;DHT22;58504;48.770;9.148;2022-11-22T15:54:06;23.80;52.50
62589;DHT22;58504;48.770;9.148;2022-11-22T15:56:44;23.80;52.50
62589;DHT22;58504;48.770;9.148;2022-11-22T15:59:18;23.80;52.50
62589;DHT22;58504;48.770;9.148;2022-11-22T16:01:46;23.80;52.50
62589;DHT22;58504;48.770;9.148;2022-11-22T16:04:20;23.70;52.40
62589;DHT22;58504;48.770;9.148;2022-11-22T16:06:47;23.70;52.40
62589;DHT22;58504;48.770;9.148;2022-11-22T16:09:22;23.80;52.50